Time;durP1;ratioP1;P1;durP2;ratioP2;P2;SDS_P1;SDS_P2;PMS_P1;PMS_P2;Temp;Humidity;BMP_temperature;BMP_pressure;BME280_temperature;BME280_humidity;BME280_pressure;Samples;Min_cycle;Max_cycle;Signal;HPM_P1;HPM_P2
2022/07/22 00:02:09;;;;;;;68.70;27.50;;;;;;;17.88;65.52;98801.97;4973362;28;20406;-76
2022/07/22 00:04:35;;;;;;;44.88;23.67;;;;;;;17.84;65.25;98797.94;4973223;28;20043;-76
2022/07/22 00:07:01;;;;;;;41.13;24.40;;;;;;;17.78;64.96;98804.06;4957090;28;20039;-77
2022/07/22 00:09:27;;;;;;;37.17;16.58;;;;;;;17.68;65.33;98805.16;4974211;28;20053;-77
2022/07/22 00:11:53;;;;;;;38.78;15.70;;;;;;;17.67;65.29;98814.25;4973089;28;20086;-76
2022/07/22 00:14:19;;;;;;;34.92;17.13;;;;;;;17.63;64.95;98791.31;4974153;28;20090;-77
2022/07/22 00:16:45;;;;;;;40.22;15.60;;;;;;;17.61;65.04;98798.78;4956974;28;20082;-76
2022/07/22 00:19:11;;;;;;;27.67;15.43;;;;;;;17.66;64.83;98818.00;4972781;28;20480;-76
2022/07/22 00:21:36;;;;;;;29.58;18.25;;;;;;;17.62;64.87;98813.97;4973063;28;20055;-77
2022/07/22 00:24:03;;;;;;;34.15;21.75;;;;;;;17.50;65.08;98815.41;4974386;28;20125;-77
2022/07/22 00:26:29;;;;;;;26.05;17.23;;;;;;;17.47;65.24;98821.19;4973958;28;20446;-77
2022/07/22 00:28:55;;;;;;;30.67;21.17;;;;;;;17.43;64.99;98825.25;4972798;28;20038;-77
2022/07/22 00:31:21;;;;;;;28.50;23.38;;;;;;;17.41;65.35;98830.84;4940822;28;20515;-77
2022/07/22 00:33:47;;;;;;;40.50;28.42;;;;;;;17.39;65.64;98822.06;4989021;28;20046;-76
2022/07/22 00:36:12;;;;;;;47.67;40.47;;;;;;;17.34;65.80;98824.47;4972748;28;20395;-76
2022/07/22 00:38:38;;;;;;;52.15;43.55;;;;;;;17.32;65.71;98821.09;4976747;28;20108;-76
2022/07/22 00:41:04;;;;;;;55.03;48.67;;;;;;;17.32;66.05;98815.69;4960852;28;20049;-77
2022/07/22 00:44:00;;;;;;;62.28;52.83;;;;;;;17.31;66.20;98826.69;4993364;28;20406;-77
2022/07/22 00:46:27;;;;;;;69.43;53.95;;;;;;;17.35;66.58;98830.72;4961539;28;20072;-76
2022/07/22 00:48:54;;;;;;;77.43;58.08;;;;;;;17.38;66.52;98824.97;4978308;28;20164;-77
2022/07/22 00:51:22;;;;;;;59.30;47.30;;;;;;;17.30;67.69;98838.50;4978035;28;20074;-77
2022/07/22 00:53:49;;;;;;;58.63;44.90;;;;;;;17.12;68.21;98826.13;4993089;28;20057;-77
2022/07/22 00:56:16;;;;;;;77.30;54.47;;;;;;;17.15;68.16;98825.78;4977888;28;20388;-77
2022/07/22 00:58:43;;;;;;;102.65;86.30;;;;;;;17.27;67.69;98828.06;4961052;28;20383;-76
2022/07/22 01:01:09;;;;;;;128.90;101.10;;;;;;;17.27;68.00;98830.78;4977923;28;20141;-76
2022/07/22 01:03:36;;;;;;;130.52;105.00;;;;;;;17.33;68.10;98833.59;4976498;28;20045;-77
2022/07/22 01:06:03;;;;;;;112.45;95.72;;;;;;;17.43;67.51;98827.97;4992731;28;20552;-77
2022/07/22 01:08:30;;;;;;;105.05;84.18;;;;;;;17.48;67.18;98841.75;4992603;28;20046;-77
2022/07/22 01:11:07;;;;;;;86.22;75.03;;;;;;;17.47;67.60;98840.94;4992307;28;20482;-76
2022/07/22 01:13:32;;;;;;;98.47;77.05;;;;;;;17.37;68.03;98842.19;4977700;28;20078;-76
2022/07/22 01:15:58;;;;;;;76.18;65.88;;;;;;;17.39;67.87;98849.09;4960146;28;20445;-77
2022/07/22 01:18:24;;;;;;;90.88;77.80;;;;;;;17.42;67.83;98839.78;4975923;28;20564;-76
2022/07/22 01:20:50;;;;;;;174.10;123.30;;;;;;;17.47;67.85;98845.50;4976252;28;20078;-77
2022/07/22 01:23:15;;;;;;;296.20;195.20;;;;;;;17.43;67.72;98836.91;4992158;28;20035;-76
2022/07/22 01:25:41;;;;;;;317.08;206.98;;;;;;;17.36;68.64;98848.59;4976998;28;20069;-77
2022/07/22 01:28:07;;;;;;;232.10;144.93;;;;;;;17.23;68.77;98844.63;4977555;28;20047;-77
2022/07/22 01:30:33;;;;;;;191.93;121.18;;;;;;;17.26;68.94;98864.19;4992472;28;20105;-77
2022/07/22 01:32:59;;;;;;;184.65;122.68;;;;;;;17.16;69.24;98854.47;4977479;28;20137;-76
2022/07/22 01:35:25;;;;;;;164.90;100.75;;;;;;;17.11;69.25;98854.16;4992094;28;20042;-77
2022/07/22 01:37:51;;;;;;;138.93;93.93;;;;;;;16.99;70.00;98855.53;4991988;28;20057;-76
2022/07/22 01:40:17;;;;;;;169.15;97.20;;;;;;;16.98;69.94;98851.16;4975521;28;20083;-78
2022/07/22 01:42:43;;;;;;;184.07;100.30;;;;;;;16.96;69.65;98843.25;4959697;28;20051;-76
2022/07/22 01:45:09;;;;;;;169.50;108.43;;;;;;;17.11;69.39;98854.16;4992159;28;20105;-77
2022/07/22 01:47:36;;;;;;;147.27;93.13;;;;;;;17.08;69.25;98851.81;4976611;28;20074;-77
2022/07/22 01:50:04;;;;;;;156.13;92.22;;;;;;;17.09;69.06;98839.97;4991072;28;20137;-77
2022/07/22 01:52:30;;;;;;;171.82;87.15;;;;;;;17.17;69.17;98856.13;4976025;28;20042;-78
2022/07/22 01:54:56;;;;;;;175.27;79.50;;;;;;;17.12;69.65;98841.50;4991974;28;20050;-76
2022/07/22 01:57:22;;;;;;;159.30;77.05;;;;;;;17.14;69.47;98852.94;4975683;28;20512;-77
2022/07/22 01:59:50;;;;;;;157.70;69.57;;;;;;;17.15;69.59;98847.38;4992043;28;20046;-77
2022/07/22 02:02:16;;;;;;;144.63;69.55;;;;;;;17.17;69.73;98853.44;4992080;28;20718;-77
2022/07/22 02:04:42;;;;;;;128.13;65.10;;;;;;;17.23;69.86;98855.44;4976506;28;20502;-76
2022/07/22 02:07:08;;;;;;;114.63;57.92;;;;;;;17.35;69.53;98858.56;4992057;28;20043;-76
2022/07/22 02:09:34;;;;;;;96.85;51.42;;;;;;;17.56;68.73;98865.19;4975208;28;20406;-77
2022/07/22 02:12:00;;;;;;;91.82;43.80;;;;;;;17.71;68.37;98858.84;4991569;28;20050;-77
2022/07/22 02:14:28;;;;;;;74.03;37.10;;;;;;;17.83;68.01;98866.56;4975055;28;20047;-77
2022/07/22 02:16:54;;;;;;;61.50;28.65;;;;;;;17.78;67.71;98861.69;4975032;28;20045;-78
2022/07/22 02:19:20;;;;;;;56.22;25.13;;;;;;;17.69;67.91;98862.75;4991320;28;20526;-78
2022/07/22 02:21:46;;;;;;;33.33;20.05;;;;;;;17.80;67.42;98866.94;4958847;28;20106;-78
2022/07/22 02:24:11;;;;;;;29.38;17.77;;;;;;;17.90;67.09;98873.78;4974960;28;20510;-77
2022/07/22 02:26:38;;;;;;;59.55;18.35;;;;;;;17.90;67.11;98875.63;4990797;28;20061;-78
2022/07/22 02:29:04;;;;;;;59.38;21.15;;;;;;;18.07;66.79;98873.63;4975597;28;20142;-77
2022/07/22 02:31:29;;;;;;;74.43;27.55;;;;;;;18.23;66.51;98870.78;4990977;28;20086;-78
2022/07/22 02:33:55;;;;;;;60.38;33.30;;;;;;;18.29;66.26;98877.34;4974547;28;20042;-79
2022/07/22 02:36:23;;;;;;;70.68;37.28;;;;;;;18.15;66.26;98860.03;4975140;28;20089;-77
2022/07/22 02:38:49;;;;;;;69.15;38.97;;;;;;;18.31;66.40;98870.69;4990791;28;20177;-77
2022/07/22 02:41:15;;;;;;;79.60;38.20;;;;;;;18.37;66.28;98869.13;4958857;28;20047;-77
2022/07/22 02:43:48;;;;;;;64.22;36.83;;;;;;;18.56;65.76;98884.81;4975544;28;20387;-78
2022/07/22 02:46:13;;;;;;;95.90;42.80;;;;;;;18.61;65.77;98876.16;4990692;28;20062;-78
2022/07/22 02:48:39;;;;;;;79.93;45.05;;;;;;;18.81;65.08;98879.19;4984026;28;20047;-78
2022/07/22 02:51:09;;;;;;;90.50;43.00;;;;;;;18.86;64.80;98884.88;4974312;28;20057;-77
2022/07/22 02:53:35;;;;;;;102.22;45.28;;;;;;;18.89;64.54;98879.94;4990392;28;20094;-78
2022/07/22 02:56:01;;;;;;;88.43;46.65;;;;;;;18.87;64.21;98875.72;4990474;28;20050;-78
2022/07/22 02:58:27;;;;;;;95.03;45.13;;;;;;;19.01;64.48;98896.53;4974413;28;20513;-78
2022/07/22 03:00:53;;;;;;;94.82;51.08;;;;;;;18.98;63.99;98899.63;4989417;28;20489;-82
2022/07/22 03:03:19;;;;;;;116.05;55.22;;;;;;;19.05;63.88;98905.13;4974556;28;20034;-83
2022/07/22 03:05:46;;;;;;;99.53;61.25;;;;;;;19.06;63.97;98899.53;4958274;28;20081;-77
2022/07/22 03:08:28;;;;;;;108.47;57.92;;;;;;;19.11;63.76;98905.22;4974683;28;20047;-77
2022/07/22 03:10:54;;;;;;;100.72;61.65;;;;;;;19.20;63.71;98892.41;4990779;28;20098;-80
2022/07/22 03:13:21;;;;;;;109.82;63.70;;;;;;;19.30;63.45;98902.97;4974448;28;20141;-78
2022/07/22 03:15:46;;;;;;;106.53;59.33;;;;;;;19.29;63.19;98909.41;4973876;28;20150;-76
2022/07/22 03:18:13;;;;;;;94.82;57.45;;;;;;;19.36;63.08;98908.44;4990154;28;20054;-76
2022/07/22 03:20:40;;;;;;;98.90;49.15;;;;;;;19.39;63.07;98907.25;4973992;28;20045;-75
2022/07/22 03:23:06;;;;;;;67.65;39.58;;;;;;;19.38;63.08;98905.56;4974057;28;20042;-77
2022/07/22 03:25:32;;;;;;;69.65;39.40;;;;;;;19.49;62.96;98902.38;4989562;28;20417;-77
2022/07/22 03:27:58;;;;;;;69.32;32.67;;;;;;;19.69;62.65;98908.03;4973781;28;20093;-78
2022/07/22 03:30:24;;;;;;;74.47;31.30;;;;;;;19.82;62.26;98896.47;4974594;28;20039;-77
2022/07/22 03:32:50;;;;;;;71.03;31.75;;;;;;;19.90;62.50;98890.94;4989480;28;20051;-76
2022/07/22 03:35:16;;;;;;;68.30;30.77;;;;;;;20.07;61.66;98911.34;4989531;28;20050;-77
2022/07/22 03:37:44;;;;;;;70.05;30.08;;;;;;;20.18;61.44;98912.69;4973257;28;20047;-76
2022/07/22 03:40:11;;;;;;;49.90;28.02;;;;;;;20.35;61.03;98910.56;4989501;28;20046;-75
2022/07/22 03:42:39;;;;;;;57.53;32.00;;;;;;;20.46;60.35;98903.72;4973125;28;20442;-76
2022/07/22 03:45:05;;;;;;;60.65;33.65;;;;;;;20.35;60.22;98899.69;4973189;28;20432;-79
2022/07/22 03:47:36;;;;;;;58.88;36.50;;;;;;;20.40;60.46;98905.38;4973030;28;20047;-76
2022/07/22 03:50:03;;;;;;;63.88;36.83;;;;;;;20.40;60.69;98899.09;4973135;28;20047;-77
2022/07/22 03:52:29;;;;;;;61.67;39.65;;;;;;;20.53;60.59;98894.63;4973023;28;20045;-77
2022/07/22 03:54:57;;;;;;;60.38;39.85;;;;;;;20.69;60.27;98892.69;4989083;28;20078;-77
2022/07/22 03:57:23;;;;;;;58.35;42.47;;;;;;;20.73;60.21;98894.78;4989206;28;20410;-78
2022/07/22 03:59:58;;;;;;;60.80;45.83;;;;;;;20.78;59.83;98881.44;4957317;28;20049;-77
2022/07/22 04:02:25;;;;;;;86.65;47.53;;;;;;;21.01;59.53;98896.63;4973049;28;20046;-77
2022/07/22 04:04:51;;;;;;;62.88;46.78;;;;;;;21.10;59.22;98890.00;4973196;28;20402;-77
2022/07/22 04:07:18;;;;;;;60.63;46.03;;;;;;;21.06;59.19;98895.00;4989193;28;20054;-77
2022/07/22 04:09:44;;;;;;;49.20;41.20;;;;;;;21.25;58.94;98897.97;4972834;28;20039;-77
2022/07/22 04:12:10;;;;;;;58.72;37.70;;;;;;;21.37;58.65;98899.13;4988472;28;20047;-78
2022/07/22 04:14:54;;;;;;;45.65;29.50;;;;;;;21.54;58.43;98892.28;4973114;28;20194;-78
2022/07/22 04:17:20;;;;;;;37.17;23.45;;;;;;;21.73;57.88;98903.41;4989066;28;20593;-79
2022/07/22 04:19:45;;;;;;;31.00;20.83;;;;;;;21.90;57.48;98907.44;4973341;28;20162;-77
2022/07/22 04:22:23;;;;;;;33.05;14.20;;;;;;;22.01;56.59;98892.41;4987605;28;20050;-79
2022/07/22 04:24:49;;;;;;;22.55;11.82;;;;;;;22.16;55.59;98903.13;4973224;28;20046;-79
2022/07/22 04:27:15;;;;;;;25.35;11.07;;;;;;;22.30;55.11;98891.16;4972967;28;20043;-78
2022/07/22 04:29:41;;;;;;;27.27;10.13;;;;;;;22.44;54.36;98897.47;4973120;28;20051;-76
2022/07/22 04:32:07;;;;;;;28.40;9.90;;;;;;;22.44;54.28;98897.47;4988872;28;20047;-78
2022/07/22 04:34:34;;;;;;;31.05;10.45;;;;;;;22.66;54.50;98900.81;4972797;28;20039;-78
2022/07/22 04:37:01;;;;;;;34.60;9.77;;;;;;;22.70;51.82;98899.31;4988690;28;20505;-77
2022/07/22 04:39:30;;;;;;;36.90;9.95;;;;;;;22.79;52.09;98890.72;4972942;28;20474;-78
2022/07/22 04:41:57;;;;;;;30.77;9.13;;;;;;;23.07;52.19;98889.63;4972487;28;20089;-77
2022/07/22 04:44:24;;;;;;;40.45;9.52;;;;;;;23.15;50.62;98883.94;4956699;28;20446;-78
2022/07/22 04:46:49;;;;;;;35.90;9.43;;;;;;;23.47;50.70;98892.22;4972519;28;20081;-80
2022/07/22 04:49:15;;;;;;;58.75;11.15;;;;;;;23.71;49.93;98894.22;4989085;28;20054;-79
2022/07/22 04:51:41;;;;;;;59.13;11.10;;;;;;;23.87;48.47;98892.84;4972664;28;20097;-78
2022/07/22 04:54:11;;;;;;;75.88;13.55;;;;;;;23.57;47.72;98875.38;4972625;28;20137;-79
2022/07/22 04:56:40;;;;;;;91.78;12.82;;;;;;;23.53;48.14;98902.25;4972610;28;20039;-77
2022/07/22 04:59:06;;;;;;;80.85;11.90;;;;;;;23.58;47.53;98894.22;4988475;28;20062;-77
2022/07/22 05:01:36;;;;;;;61.33;10.48;;;;;;;23.81;47.41;98901.94;4956493;28;20050;-77
2022/07/22 05:04:03;;;;;;;61.88;11.48;;;;;;;24.04;47.54;98881.41;4988620;28;20200;-78
2022/07/22 05:06:30;;;;;;;104.03;12.75;;;;;;;24.21;46.09;98897.00;4956708;28;20081;-78
2022/07/22 05:08:56;;;;;;;102.43;13.18;;;;;;;24.15;46.17;98905.28;4972896;28;20098;-77
2022/07/22 05:11:22;;;;;;;71.78;11.68;;;;;;;24.14;46.04;98898.13;4972363;28;20050;-77
2022/07/22 05:13:48;;;;;;;56.33;7.78;;;;;;;24.25;45.64;98889.22;4988687;28;20050;-78
2022/07/22 05:16:14;;;;;;;23.15;4.65;;;;;;;24.36;44.13;98891.22;4972434;28;20510;-79
2022/07/22 05:18:40;;;;;;;24.98;5.18;;;;;;;24.37;43.38;98860.13;4988462;28;20077;-78
2022/07/22 05:21:09;;;;;;;39.15;5.28;;;;;;;24.59;43.37;98884.34;4972564;28;20417;-78
2022/07/22 05:23:34;;;;;;;55.63;7.60;;;;;;;24.62;43.67;98889.34;4972510;28;20082;-77
2022/07/22 05:26:01;;;;;;;99.15;10.30;;;;;;;24.66;44.23;98891.41;4959636;28;20078;-77
2022/07/22 05:28:27;;;;;;;72.10;9.48;;;;;;;24.63;43.51;98885.56;4943463;28;20085;-78
2022/07/22 05:30:53;;;;;;;54.08;8.15;;;;;;;24.58;43.28;98893.59;4991900;28;20489;-78
2022/07/22 05:33:20;;;;;;;55.08;7.38;;;;;;;24.56;43.39;98901.19;4975728;28;20418;-78
2022/07/22 05:36:08;;;;;;;50.42;7.05;;;;;;;24.64;42.96;98895.44;4976040;28;20453;-78
2022/07/22 05:38:38;;;;;;;56.53;7.50;;;;;;;24.88;43.48;98893.72;4991919;28;20113;-77
2022/07/22 05:41:05;;;;;;;38.50;6.65;;;;;;;25.16;43.08;98890.50;4975660;28;20042;-78
2022/07/22 05:43:31;;;;;;;40.30;7.95;;;;;;;25.48;43.07;98882.97;4991915;28;20047;-77
2022/07/22 05:45:57;;;;;;;49.92;6.43;;;;;;;25.76;42.21;98892.47;4991760;28;20050;-78
2022/07/22 05:48:23;;;;;;;35.67;6.43;;;;;;;25.94;40.84;98892.44;4975624;28;20093;-76
2022/07/22 05:50:49;;;;;;;44.25;6.38;;;;;;;25.90;40.19;98886.59;4959006;28;20046;-79
2022/07/22 05:53:14;;;;;;;39.20;5.90;;;;;;;25.66;40.66;98891.13;4958982;28;20379;-79
2022/07/22 05:55:41;;;;;;;31.48;5.22;;;;;;;25.75;41.20;98899.03;4974940;28;20129;-77
2022/07/22 05:58:07;;;;;;;44.30;5.97;;;;;;;25.87;40.42;98887.06;4975284;28;20449;-79
2022/07/22 06:00:33;;;;;;;41.10;5.95;;;;;;;25.80;40.04;98891.81;4976390;28;20129;-78
2022/07/22 06:03:00;;;;;;;36.20;5.88;;;;;;;26.00;40.21;98893.44;4975145;28;20053;-77
2022/07/22 06:05:26;;;;;;;27.85;4.13;;;;;;;26.15;39.29;98893.81;4975362;28;20038;-79
2022/07/22 06:07:53;;;;;;;33.45;4.57;;;;;;;26.22;39.12;98891.81;4959036;28;20522;-78
2022/07/22 06:10:32;;;;;;;37.45;4.93;;;;;;;26.23;39.25;98889.91;4959005;28;20039;-78
2022/07/22 06:12:58;;;;;;;37.88;5.40;;;;;;;26.30;38.84;98886.00;4976477;28;20097;-78
2022/07/22 06:15:24;;;;;;;24.92;3.25;;;;;;;26.30;38.38;98868.72;4991084;28;20101;-78
2022/07/22 06:17:51;;;;;;;31.80;3.50;;;;;;;26.37;39.04;98886.72;4991067;28;20046;-78
2022/07/22 06:20:18;;;;;;;30.85;4.10;;;;;;;26.36;37.88;98885.03;4991275;28;20046;-78
2022/07/22 06:22:43;;;;;;;29.30;5.00;;;;;;;26.46;38.55;98878.19;4976311;28;20101;-78
2022/07/22 06:25:09;;;;;;;34.70;4.55;;;;;;;26.18;37.85;98876.94;4990911;28;20051;-78
2022/07/22 06:27:36;;;;;;;39.17;4.47;;;;;;;26.07;38.08;98880.47;4975405;28;20510;-78
2022/07/22 06:30:06;;;;;;;40.45;4.45;;;;;;;26.13;38.29;98871.31;4974835;28;20042;-78
2022/07/22 06:32:35;;;;;;;28.58;3.45;;;;;;;26.23;38.00;98871.56;4990897;28;20050;-79
2022/07/22 06:35:02;;;;;;;25.95;3.42;;;;;;;26.50;37.64;98876.63;4958353;28;20089;-77
2022/07/22 06:37:28;;;;;;;29.58;4.10;;;;;;;26.59;37.35;98875.19;4974537;28;20054;-79
2022/07/22 06:39:54;;;;;;;16.55;3.72;;;;;;;26.40;37.31;98874.44;4974145;28;20043;-78
2022/07/22 06:42:38;;;;;;;24.73;3.20;;;;;;;26.46;37.19;98872.69;4958735;28;20494;-77
2022/07/22 06:45:23;;;;;;;20.75;3.78;;;;;;;26.76;36.55;98878.06;4974502;28;20054;-78
2022/07/22 06:48:07;;;;;;;17.23;3.45;;;;;;;27.10;36.54;98881.84;4975469;28;20058;-79
2022/07/22 06:50:33;;;;;;;18.35;3.08;;;;;;;27.31;36.00;98866.69;4975467;28;20038;-78
2022/07/22 06:53:04;;;;;;;13.73;2.75;;;;;;;27.25;35.76;98876.72;4974917;28;20046;-78
2022/07/22 06:55:32;;;;;;;16.20;3.13;;;;;;;27.10;35.59;98868.94;4990524;28;20050;-77
2022/07/22 06:58:03;;;;;;;12.60;2.70;;;;;;;27.19;35.79;98876.84;4974429;28;20498;-79
2022/07/22 07:00:30;;;;;;;17.25;2.90;;;;;;;27.46;36.07;98864.25;4974291;28;20042;-79
2022/07/22 07:03:14;;;;;;;25.92;3.40;;;;;;;27.78;35.06;98866.53;4974723;28;20130;-78
2022/07/22 07:05:41;;;;;;;18.15;3.40;;;;;;;27.74;35.07;98874.41;4990567;28;20050;-80
2022/07/22 07:08:07;;;;;;;9.32;2.60;;;;;;;27.16;35.00;98872.69;4974166;28;20085;-79
2022/07/22 07:10:33;;;;;;;15.93;2.33;;;;;;;26.97;34.89;98862.88;4974114;28;20478;-78
2022/07/22 07:13:08;;;;;;;9.32;2.35;;;;;;;27.27;34.76;98863.59;4973973;28;20435;-79
2022/07/22 07:15:41;;;;;;;20.40;2.83;;;;;;;27.71;34.67;98857.56;4989075;28;20046;-79
2022/07/22 07:18:11;;;;;;;13.13;2.30;;;;;;;28.10;34.52;98853.09;4990408;28;20046;-78
2022/07/22 07:20:38;;;;;;;13.95;2.63;;;;;;;28.28;34.06;98850.13;4990130;28;20081;-78
2022/07/22 07:23:06;;;;;;;6.07;1.60;;;;;;;28.21;34.09;98852.19;4973940;28;20490;-78
2022/07/22 07:25:39;;;;;;;12.63;1.90;;;;;;;28.10;33.91;98853.09;4973211;28;20300;-79
2022/07/22 07:28:05;;;;;;;18.85;2.17;;;;;;;27.92;33.90;98842.34;4973901;28;20042;-79
2022/07/22 07:30:53;;;;;;;5.18;1.80;;;;;;;27.71;34.23;98847.41;4957383;28;20083;-77
2022/07/22 07:33:20;;;;;;;5.78;1.90;;;;;;;27.87;34.26;98861.47;4973349;28;20387;-78
2022/07/22 07:35:46;;;;;;;2.53;1.30;;;;;;;27.90;33.13;98855.47;4989681;28;20086;-79
2022/07/22 07:38:14;;;;;;;4.05;1.25;;;;;;;28.14;33.31;98857.00;4989645;28;20058;-79
2022/07/22 07:40:42;;;;;;;5.93;1.95;;;;;;;28.25;33.10;98852.53;4989391;28;20553;-77
2022/07/22 07:43:08;;;;;;;5.88;1.50;;;;;;;28.63;33.13;98842.69;4989738;28;20093;-80
2022/07/22 07:45:35;;;;;;;8.00;1.70;;;;;;;29.04;32.28;98844.97;4957310;28;20046;-78
2022/07/22 07:48:02;;;;;;;12.15;1.67;;;;;;;29.34;31.46;98848.34;4972832;28;20605;-78
2022/07/22 07:50:28;;;;;;;6.95;1.77;;;;;;;29.26;30.37;98858.72;4989455;28;20043;-80
2022/07/22 07:52:56;;;;;;;4.30;1.30;;;;;;;29.01;30.24;98855.66;4973815;28;20070;-78
2022/07/22 07:55:24;;;;;;;3.60;1.30;;;;;;;28.90;30.83;98851.88;4973367;28;20156;-78
2022/07/22 07:57:50;;;;;;;1.63;1.20;;;;;;;29.07;29.73;98859.28;4989490;28;20416;-77
2022/07/22 08:00:27;;;;;;;3.42;1.30;;;;;;;29.13;29.50;98856.34;4989345;28;20046;-78
2022/07/22 08:02:55;;;;;;;1.98;0.90;;;;;;;28.93;29.37;98847.81;4973298;28;20042;-79
2022/07/22 08:05:24;;;;;;;2.72;0.95;;;;;;;28.49;29.48;98858.72;4989076;28;20565;-77
2022/07/22 08:07:51;;;;;;;3.05;1.10;;;;;;;28.17;30.17;98851.03;4973231;28;20050;-78
2022/07/22 08:10:18;;;;;;;2.58;0.95;;;;;;;28.11;29.48;98852.00;4972858;28;20046;-78
2022/07/22 08:13:07;;;;;;;1.73;0.90;;;;;;;28.39;29.57;98853.03;4974572;28;20054;-78
2022/07/22 08:15:44;;;;;;;7.33;1.10;;;;;;;28.95;29.12;98846.44;4988796;28;20101;-78
2022/07/22 08:18:37;;;;;;;0.90;0.85;;;;;;;28.96;28.62;98847.28;4972090;28;20113;-78
2022/07/22 08:21:03;;;;;;;5.13;0.82;;;;;;;28.98;28.75;98834.13;4989197;28;20050;-78
2022/07/22 08:23:38;;;;;;;5.90;1.20;;;;;;;29.31;29.08;98846.13;4974120;28;20081;-78
2022/07/22 08:26:04;;;;;;;2.78;0.93;;;;;;;29.40;28.61;98847.31;4988649;28;20054;-77
2022/07/22 08:28:29;;;;;;;2.83;1.08;;;;;;;29.71;28.92;98846.63;4973019;28;20162;-80
2022/07/22 08:30:56;;;;;;;3.97;1.00;;;;;;;29.88;29.15;98853.94;4989200;28;20069;-79
2022/07/22 08:33:22;;;;;;;1.60;1.15;;;;;;;29.47;29.39;98851.53;4973159;28;20035;-79
2022/07/22 08:35:48;;;;;;;5.45;1.25;;;;;;;29.24;29.50;98843.56;4972715;28;20049;-78
2022/07/22 08:38:14;;;;;;;4.53;1.20;;;;;;;29.37;29.45;98831.31;4972727;28;20128;-77
2022/07/22 08:40:40;;;;;;;5.45;1.17;;;;;;;29.72;28.92;98828.97;4972437;28;20054;-77
2022/07/22 08:43:06;;;;;;;5.18;1.40;;;;;;;30.17;29.13;98844.31;4972850;28;20035;-79
2022/07/22 08:45:33;;;;;;;8.13;1.23;;;;;;;30.15;28.29;98848.38;4972645;28;20050;-78
2022/07/22 08:48:02;;;;;;;4.47;1.17;;;;;;;29.81;28.54;98856.06;4988660;28;20035;-79
2022/07/22 08:50:48;;;;;;;3.25;1.10;;;;;;;29.68;28.86;98849.06;4981829;28;20149;-78
2022/07/22 08:53:23;;;;;;;4.70;1.30;;;;;;;30.07;28.43;98824.91;4973100;28;20116;-77
2022/07/22 08:55:52;;;;;;;5.50;1.00;;;;;;;30.37;28.06;98840.88;4988528;28;20054;-79
2022/07/22 08:58:18;;;;;;;4.20;0.90;;;;;;;30.59;28.05;98838.00;4972245;28;20042;-77
2022/07/22 09:00:43;;;;;;;4.82;0.93;;;;;;;30.41;28.32;98838.44;4992439;28;20150;-77
2022/07/22 09:03:25;;;;;;;1.48;0.82;;;;;;;30.48;27.67;98826.06;4976205;28;20049;-77
2022/07/22 09:05:53;;;;;;;6.38;1.02;;;;;;;30.70;28.16;98834.22;4992814;28;20073;-78
2022/07/22 09:08:20;;;;;;;5.25;1.10;;;;;;;31.18;27.56;98837.81;4977330;28;20494;-76
2022/07/22 09:11:17;;;;;;;1.73;1.13;;;;;;;30.66;27.20;98835.84;4975275;28;20046;-79
2022/07/22 09:14:22;;;;;;;2.75;1.00;;;;;;;30.93;27.26;98833.00;4936789;29;20139;-77
2022/07/22 09:17:35;;;;;;;3.45;0.98;;;;;;;30.77;27.33;98827.66;4920560;29;20099;-77
2022/07/22 09:20:21;;;;;;;2.65;0.90;;;;;;;30.70;27.56;98833.41;4974519;28;20054;-78
2022/07/22 09:23:15;;;;;;;0.77;0.77;;;;;;;30.81;26.74;98823.28;4969851;28;20094;-78
2022/07/22 09:25:42;;;;;;;9.05;1.00;;;;;;;31.21;26.74;98828.97;4992059;28;20062;-78
2022/07/22 09:28:27;;;;;;;1.10;1.00;;;;;;;31.12;26.36;98819.56;4976059;28;20086;-77
2022/07/22 09:31:27;;;;;;;9.20;1.30;;;;;;;30.96;26.71;98826.94;4976513;28;20039;-78
2022/07/22 09:33:57;;;;;;;2.25;1.10;;;;;;;30.69;27.01;98827.06;4975174;28;20034;-78
2022/07/22 09:36:27;;;;;;;3.95;1.00;;;;;;;30.89;27.28;98837.41;4991800;28;20039;-79
2022/07/22 09:38:54;;;;;;;4.30;1.07;;;;;;;31.34;26.70;98824.09;4959396;28;20524;-77
2022/07/22 09:41:21;;;;;;;2.63;1.10;;;;;;;31.85;26.57;98826.97;4959477;28;20282;-78
2022/07/22 09:43:47;;;;;;;3.90;1.27;;;;;;;31.63;26.52;98825.28;4992260;28;20055;-78
2022/07/22 09:46:14;;;;;;;3.72;1.73;;;;;;;31.87;26.51;98822.88;4992103;28;20074;-78
2022/07/22 09:48:58;;;;;;;7.00;1.30;;;;;;;31.85;26.67;98833.34;4975589;28;20097;-77
2022/07/22 09:51:35;;;;;;;2.67;1.00;;;;;;;32.00;26.56;98829.78;4975329;28;20057;-77
2022/07/22 09:54:22;;;;;;;6.85;0.90;;;;;;;32.67;26.15;98810.41;4975261;28;20097;-77
2022/07/22 09:56:49;;;;;;;1.55;1.25;;;;;;;32.64;25.26;98818.13;4975480;28;20093;-77
2022/07/22 09:59:18;;;;;;;2.35;1.00;;;;;;;32.44;25.68;98815.41;4974850;28;20094;-78
2022/07/22 10:02:03;;;;;;;3.92;1.20;;;;;;;32.92;25.18;98818.63;4977533;28;20055;-78
2022/07/22 10:04:33;;;;;;;2.60;1.13;;;;;;;33.18;24.75;98818.59;4975416;28;20065;-79
2022/07/22 10:07:01;;;;;;;2.10;0.90;;;;;;;32.74;24.93;98813.72;4991853;28;20047;-78
2022/07/22 10:09:36;;;;;;;2.40;0.95;;;;;;;32.77;25.32;98808.44;4958803;28;20051;-78
2022/07/22 10:12:02;;;;;;;4.55;1.00;;;;;;;32.91;25.07;98810.59;4959211;28;20462;-78
2022/07/22 10:14:30;;;;;;;3.28;1.10;;;;;;;33.73;24.15;98802.78;4991245;28;20043;-78
2022/07/22 10:16:59;;;;;;;4.65;1.00;;;;;;;34.31;23.53;98811.22;4991231;28;20046;-78
2022/07/22 10:19:24;;;;;;;4.88;1.00;;;;;;;34.25;23.36;98796.56;4975269;28;20046;-79
2022/07/22 10:21:50;;;;;;;4.55;0.90;;;;;;;34.41;23.61;98800.00;4990950;28;20395;-78
2022/07/22 10:24:23;;;;;;;2.42;1.00;;;;;;;34.67;23.32;98802.56;4991001;28;20115;-79
2022/07/22 10:27:00;;;;;;;11.20;1.08;;;;;;;35.39;22.54;98794.19;4974651;28;20083;-79
2022/07/22 10:29:28;;;;;;;3.45;1.20;;;;;;;35.25;22.46;98805.25;4991334;28;20055;-77
2022/07/22 10:32:21;;;;;;;4.30;1.20;;;;;;;35.00;22.47;98801.66;4990907;28;20050;-79
2022/07/22 10:35:03;;;;;;;5.85;1.10;;;;;;;34.98;22.51;98787.22;4990510;28;20061;-77
2022/07/22 10:37:37;;;;;;;8.35;1.25;;;;;;;35.18;22.25;98799.22;4974603;28;20074;-78
2022/07/22 10:40:16;;;;;;;3.85;1.10;;;;;;;34.81;22.34;98803.53;4974746;28;20449;-76
2022/07/22 10:45:34;;;;;;;2.80;1.00;;;;;;;35.21;22.13;98790.31;4974496;28;20387;-78
2022/07/22 10:48:07;;;;;;;4.30;1.13;;;;;;;35.42;22.26;98801.94;4974547;28;20046;-78
2022/07/22 10:50:39;;;;;;;4.65;1.10;;;;;;;35.64;21.59;98798.59;4991229;28;20043;-77
2022/07/22 10:53:20;;;;;;;2.97;0.90;;;;;;;36.45;21.03;98802.88;4974865;28;20039;-78
2022/07/22 10:56:08;;;;;;;5.68;0.85;;;;;;;37.21;20.24;98793.38;4974441;28;20042;-78
2022/07/22 10:58:33;;;;;;;1.00;0.90;;;;;;;37.73;19.93;98785.50;4975618;28;20390;-76
2022/07/22 11:01:02;;;;;;;4.13;0.88;;;;;;;38.00;19.95;98790.19;4990819;28;20062;-77
2022/07/22 11:03:33;;;;;;;3.40;1.02;;;;;;;37.76;19.17;98777.31;4990533;28;20073;-77
2022/07/22 11:06:21;;;;;;;2.13;0.82;;;;;;;36.88;19.86;98766.41;4974494;28;20473;-76
2022/07/22 11:08:51;;;;;;;;;;;;;;;37.14;20.17;98779.84;4990814;28;20045;-77
2022/07/22 11:11:18;;;;;;;6.57;1.10;;;;;;;37.72;20.27;98779.09;4990226;28;19922;-76
2022/07/22 11:13:46;;;;;;;3.13;1.00;;;;;;;38.43;19.32;98775.72;4990093;28;20113;-77
2022/07/22 11:16:26;;;;;;;4.55;0.80;;;;;;;38.19;18.79;98768.50;4975097;28;20051;-78
2022/07/22 11:18:58;;;;;;;7.50;1.33;;;;;;;36.78;20.04;98766.59;4973811;28;20049;-77
2022/07/22 11:21:27;;;;;;;4.95;1.10;;;;;;;36.16;20.87;98777.22;4974679;28;20050;-77
2022/07/22 11:23:56;;;;;;;6.90;0.90;;;;;;;36.69;20.43;98785.19;4975081;28;20038;-78
2022/07/22 11:26:46;;;;;;;10.40;1.00;;;;;;;36.79;20.35;98784.19;4990444;28;20058;-78
2022/07/22 11:29:37;;;;;;;2.97;1.10;;;;;;;36.86;19.73;98771.47;4973738;28;20043;-79
2022/07/22 11:32:06;;;;;;;3.90;1.00;;;;;;;37.55;19.49;98778.97;4990103;28;20398;-78
2022/07/22 11:34:32;;;;;;;2.67;1.00;;;;;;;38.16;19.24;98788.66;4973786;28;20042;-78
2022/07/22 11:36:58;;;;;;;2.47;0.80;;;;;;;37.71;18.83;98776.63;4989888;28;20128;-78
2022/07/22 11:39:26;;;;;;;4.38;1.00;;;;;;;38.31;19.10;98774.31;4974567;28;20090;-78